Terminal Aerodrome Forecast
Issued by NWS

Home | Current Version | Previous Version | Graphics & Text | Print | Product List | Glossary On
Versions: 1 2 3 4 5 6 7 8 9 10 11 12 13 14 15 16 17 18 19 20 21 22 23 24
000
FTUS43 KLOT 280530
TAFGYY
TAF
KGYY 280530Z 2806/2906 VRB06KT P6SM BKN070
     FM281000 35007KT 6SM -SHRA SCT015 BKN025
     FM281500 36011KT P6SM BKN015
     FM282000 02015G24KT P6SM VCSH BKN025
     FM290100 01012G18KT P6SM BKN035=

USA.gov is the U.S. government's official web portal to all federal, state and local government web resources and services.